KPMU/PMU METAR and TAF weather

Enter ICAO airport designator
Station Type Date Time Source
KPMU METAR 2019/12/13 16:55 UTC NOAA

KPMU 131655Z AUTO 00000KT 2SM BR OVC003 08/08 A2998 RMK AO2


Station Type Date Time Source
KPMU Decoded METAR 2019/12/13 16:55 UTC NOAA

Station name not available
Dec 13, 2019 - 11:55 AM EST / 2019.12.13 1655 UTC
Wind: Calm:0
Visibility: 2 mile(s):0
Sky conditions: overcast
Weather: mist
Temperature: 46 F (8 C)
Dew Point: 46 F (8 C)
Relative Humidity: 100%
Pressure (altimeter): 29.98 in. Hg (1015 hPa)
ob: KPMU 131655Z AUTO 00000KT 2SM BR OVC003 08/08 A2998 RMK AO2
cycle: 17

Station Type Date Time Source
KPMU TAF UTC NOAA

Error!

Example: see airport list